createdAt,value
2023-03-17T00:02:16.581Z,99.90
2023-03-17T00:05:04.149Z,99.90
2023-03-17T00:07:51.948Z,99.90
2023-03-17T00:10:39.059Z,99.90
2023-03-17T00:13:26.213Z,99.90
2023-03-17T00:16:17.626Z,99.90
2023-03-17T00:19:06.087Z,99.90
2023-03-17T00:21:53.231Z,99.90
2023-03-17T00:24:39.458Z,99.90
2023-03-17T00:27:26.036Z,99.90
2023-03-17T00:30:14.167Z,99.90
2023-03-17T00:33:01.373Z,99.90
2023-03-17T00:35:49.832Z,99.90
2023-03-17T00:38:37.436Z,99.90
2023-03-17T00:41:24.273Z,99.90
2023-03-17T00:44:11.730Z,99.90
2023-03-17T00:46:58.589Z,99.90
2023-03-17T00:49:48.302Z,99.90
2023-03-17T00:52:36.332Z,99.90
2023-03-17T00:55:23.091Z,99.90
2023-03-17T00:58:16.151Z,99.90
2023-03-17T01:01:02.969Z,99.90
2023-03-17T01:03:49.778Z,99.90
2023-03-17T01:06:36.210Z,99.90
2023-03-17T01:09:28.133Z,99.90
2023-03-17T01:12:15.151Z,99.90
2023-03-17T01:15:01.802Z,99.90
2023-03-17T01:17:50.392Z,99.90
2023-03-17T01:20:36.788Z,99.90
2023-03-17T01:23:23.710Z,99.90
2023-03-17T01:26:11.754Z,99.90
2023-03-17T01:28:58.896Z,99.90
2023-03-17T01:31:46.231Z,99.90
2023-03-17T01:34:32.845Z,99.90
2023-03-17T01:37:21.285Z,99.90
2023-03-17T01:40:10.281Z,99.90
2023-03-17T01:43:14.537Z,99.90
2023-03-17T01:46:20.677Z,99.90
2023-03-17T01:49:14.433Z,99.90
2023-03-17T01:52:07.563Z,99.90
2023-03-17T01:54:57.537Z,99.90
2023-03-17T01:57:50.703Z,99.90
2023-03-17T02:00:40.035Z,99.90
2023-03-17T02:03:28.019Z,99.90
2023-03-17T02:06:14.502Z,99.90
2023-03-17T02:09:01.713Z,99.90
2023-03-17T02:11:49.141Z,99.90
2023-03-17T02:14:36.682Z,99.90
2023-03-17T02:17:28.458Z,99.90
2023-03-17T02:20:48.499Z,99.90
2023-03-17T02:23:36.797Z,99.90
2023-03-17T02:26:27.778Z,99.90
2023-03-17T02:29:14.771Z,99.90
2023-03-17T02:32:01.412Z,99.90
2023-03-17T02:34:50.970Z,99.90
2023-03-17T02:37:38.518Z,99.90
2023-03-17T02:40:27.463Z,99.90
2023-03-17T02:43:14.179Z,99.90
2023-03-17T02:46:01.267Z,99.90
2023-03-17T02:48:48.434Z,99.90
2023-03-17T02:51:34.906Z,99.90
2023-03-17T02:54:21.579Z,99.90
2023-03-17T02:57:10.268Z,99.90
2023-03-17T02:59:56.527Z,99.90
2023-03-17T03:02:43.327Z,99.90
2023-03-17T03:05:29.954Z,99.90
2023-03-17T03:08:16.482Z,99.90
2023-03-17T03:11:04.869Z,99.90
2023-03-17T03:13:53.019Z,99.90
2023-03-17T03:16:40.307Z,99.90
2023-03-17T03:19:26.872Z,99.90
2023-03-17T03:22:13.278Z,99.90
2023-03-17T03:25:00.309Z,99.90
2023-03-17T03:27:47.100Z,99.90
2023-03-17T03:30:35.650Z,99.90
2023-03-17T03:33:22.190Z,99.90
2023-03-17T03:36:09.800Z,99.90
2023-03-17T03:38:56.477Z,99.90
2023-03-17T03:41:44.769Z,99.90
2023-03-17T03:44:31.843Z,99.90
2023-03-17T03:47:19.469Z,99.90
2023-03-17T03:50:07.187Z,99.90
2023-03-17T03:52:54.039Z,99.90
2023-03-17T03:55:40.762Z,99.90
2023-03-17T03:58:27.491Z,99.90
2023-03-17T04:01:14.614Z,99.90
2023-03-17T04:04:03.031Z,99.90
2023-03-17T04:06:49.619Z,99.90
2023-03-17T04:09:37.177Z,99.90
2023-03-17T04:12:23.694Z,99.90
2023-03-17T04:15:15.324Z,99.90
2023-03-17T04:18:02.615Z,99.90
2023-03-17T04:20:50.904Z,99.90
2023-03-17T04:23:37.443Z,99.90
2023-03-17T04:26:24.267Z,99.90
2023-03-17T04:29:15.539Z,99.90
2023-03-17T04:32:02.275Z,99.90
2023-03-17T04:34:48.892Z,99.90
2023-03-17T04:37:36.734Z,99.90
2023-03-17T04:40:23.335Z,99.90
2023-03-17T04:43:10.343Z,99.90
2023-03-17T04:45:57.354Z,99.90
2023-03-17T04:48:44.259Z,99.90
2023-03-17T04:51:31.802Z,99.90
2023-03-17T04:54:20.172Z,99.90
2023-03-17T04:57:06.817Z,99.90
2023-03-17T04:59:53.346Z,99.90
2023-03-17T05:02:40.009Z,99.90
2023-03-17T05:05:26.440Z,99.90
2023-03-17T05:08:12.814Z,99.90
2023-03-17T05:11:01.559Z,99.90
2023-03-17T05:13:47.967Z,99.90
2023-03-17T05:16:34.299Z,99.90
2023-03-17T05:19:21.311Z,99.90
2023-03-17T05:22:07.695Z,99.90
2023-03-17T05:24:53.953Z,99.90
2023-03-17T05:27:41.612Z,99.90
2023-03-17T05:30:28.474Z,99.90
2023-03-17T05:33:16.367Z,99.90
2023-03-17T05:36:03.538Z,99.90
2023-03-17T05:38:50.636Z,99.90
2023-03-17T05:41:37.186Z,99.90
2023-03-17T05:44:24.909Z,99.90
2023-03-17T05:47:11.358Z,99.90
2023-03-17T05:49:57.784Z,99.90
2023-03-17T05:52:44.180Z,99.90
2023-03-17T05:55:30.650Z,99.90
2023-03-17T05:58:17.333Z,99.90
2023-03-17T06:01:05.894Z,99.90
2023-03-17T06:03:53.058Z,99.90
2023-03-17T06:06:39.882Z,99.90
2023-03-17T06:09:26.845Z,99.90
2023-03-17T06:12:13.713Z,99.90
2023-03-17T06:15:00.238Z,99.90
2023-03-17T06:17:48.694Z,99.90
2023-03-17T06:20:36.558Z,99.90
2023-03-17T06:23:24.118Z,99.90
2023-03-17T06:26:11.009Z,99.90
2023-03-17T06:28:57.532Z,99.90
2023-03-17T06:31:50.354Z,99.90
2023-03-17T06:34:41.872Z,99.90
2023-03-17T06:37:28.424Z,99.90
2023-03-17T06:40:16.166Z,99.90
2023-03-17T06:43:02.965Z,99.90
2023-03-17T06:45:49.622Z,99.90
2023-03-17T06:48:36.324Z,99.90
2023-03-17T06:51:24.148Z,99.90
2023-03-17T06:54:10.676Z,99.90
2023-03-17T06:56:57.315Z,99.90
2023-03-17T06:59:43.787Z,99.90
2023-03-17T07:02:31.129Z,99.90
2023-03-17T07:05:18.599Z,99.90
2023-03-17T07:08:07.116Z,99.90
2023-03-17T07:10:55.882Z,99.90
2023-03-17T07:13:42.341Z,99.90
2023-03-17T07:16:29.656Z,99.90
2023-03-17T07:19:16.643Z,99.90
2023-03-17T07:22:03.138Z,99.90
2023-03-17T07:24:52.536Z,99.90
2023-03-17T07:27:39.001Z,99.90
2023-03-17T07:30:26.483Z,99.90
2023-03-17T07:33:13.419Z,99.90
2023-03-17T07:36:00.286Z,99.90
2023-03-17T07:38:47.173Z,99.90
2023-03-17T07:41:35.333Z,99.90
2023-03-17T07:44:22.597Z,99.90
2023-03-17T07:47:09.515Z,99.90
2023-03-17T07:49:55.987Z,99.90
2023-03-17T07:52:43.170Z,99.90
2023-03-17T07:55:30.736Z,99.90
2023-03-17T07:58:18.862Z,99.90
2023-03-17T08:01:06.076Z,99.90
2023-03-17T08:03:53.366Z,99.50
2023-03-17T08:06:41.651Z,99.50
2023-03-17T08:09:28.467Z,99.30
2023-03-17T08:12:15.889Z,99.30
2023-03-17T08:15:03.869Z,98.40
2023-03-17T08:17:50.504Z,98.40
2023-03-17T08:20:37.829Z,97.90
2023-03-17T08:23:25.436Z,98.10
2023-03-17T08:26:14.120Z,97.90
2023-03-17T08:29:01.290Z,98.70
2023-03-17T08:31:49.547Z,97.90
2023-03-17T08:34:36.271Z,97.00
2023-03-17T08:37:24.627Z,95.90
2023-03-17T08:40:13.283Z,94.80
2023-03-17T08:43:00.048Z,94.70
2023-03-17T08:45:46.808Z,94.40
2023-03-17T08:48:37.406Z,93.30
2023-03-17T08:51:25.576Z,92.10
2023-03-17T08:54:12.807Z,90.50
2023-03-17T08:57:01.717Z,87.50
2023-03-17T08:59:49.113Z,87.20
2023-03-17T09:02:35.511Z,85.90
2023-03-17T09:05:24.066Z,85.00
2023-03-17T09:08:11.952Z,82.20
2023-03-17T09:10:58.798Z,80.40
2023-03-17T09:13:46.458Z,80.10
2023-03-17T09:16:34.348Z,76.40
2023-03-17T09:19:21.721Z,79.70
2023-03-17T09:22:13.894Z,81.40
2023-03-17T09:25:00.589Z,83.10
2023-03-17T09:27:47.170Z,82.50
2023-03-17T09:30:33.920Z,79.50
2023-03-17T09:33:20.993Z,81.00
2023-03-17T09:36:08.629Z,81.40
2023-03-17T09:38:56.911Z,80.60
2023-03-17T09:41:57.175Z,80.00
2023-03-17T09:45:03.185Z,78.00
2023-03-17T09:48:09.928Z,81.10
2023-03-17T09:50:59.129Z,79.60
2023-03-17T09:53:52.752Z,75.80
2023-03-17T09:56:44.342Z,78.80
2023-03-17T09:59:33.737Z,75.50
2023-03-17T10:02:25.225Z,74.70
2023-03-17T10:05:20.545Z,71.90
2023-03-17T10:08:29.412Z,71.00
2023-03-17T10:11:25.921Z,71.60
2023-03-17T10:14:39.584Z,72.20
2023-03-17T10:17:32.677Z,73.20
2023-03-17T10:20:25.995Z,75.40
2023-03-17T10:23:16.482Z,76.20
2023-03-17T10:26:09.528Z,77.80
2023-03-17T10:28:57.055Z,78.50
2023-03-17T10:31:45.150Z,78.20
2023-03-17T10:34:35.402Z,79.60
2023-03-17T10:37:26.724Z,79.50
2023-03-17T10:40:23.431Z,79.20
2023-03-17T10:43:20.616Z,83.00
2023-03-17T10:46:18.892Z,79.40
2023-03-17T10:49:17.093Z,79.40
2023-03-17T10:52:08.544Z,79.60
2023-03-17T10:54:55.595Z,80.70
2023-03-17T10:57:52.379Z,80.50
2023-03-17T11:00:39.373Z,80.90
2023-03-17T11:03:29.133Z,81.10
2023-03-17T11:06:20.277Z,80.80
2023-03-17T11:09:10.980Z,81.40
2023-03-17T11:12:04.457Z,81.60
2023-03-17T11:14:51.479Z,81.80
2023-03-17T11:17:44.138Z,81.20
2023-03-17T11:20:48.650Z,83.20
2023-03-17T11:23:48.193Z,81.30
2023-03-17T11:26:56.446Z,81.30
2023-03-17T11:29:54.383Z,82.30
2023-03-17T11:32:46.384Z,81.60
2023-03-17T11:35:46.997Z,81.00
2023-03-17T11:38:38.950Z,81.10
2023-03-17T11:41:44.988Z,82.70
2023-03-17T11:45:10.803Z,85.30
2023-03-17T11:48:11.788Z,81.50
2023-03-17T11:51:04.573Z,82.10
2023-03-17T11:54:07.989Z,79.80
2023-03-17T11:56:59.818Z,80.70
2023-03-17T11:59:52.073Z,83.90
2023-03-17T12:02:42.500Z,84.50
2023-03-17T12:05:31.622Z,80.40
2023-03-17T12:08:25.387Z,81.00
2023-03-17T12:11:15.389Z,81.90
2023-03-17T12:14:07.289Z,82.50
2023-03-17T12:16:59.518Z,81.80
2023-03-17T12:20:00.713Z,82.80
2023-03-17T12:22:55.953Z,84.00
2023-03-17T12:25:52.827Z,84.40
2023-03-17T12:28:46.337Z,85.40
2023-03-17T12:31:37.170Z,85.40
2023-03-17T12:34:29.934Z,85.50
2023-03-17T12:37:18.156Z,85.20
2023-03-17T12:40:10.698Z,84.90
2023-03-17T12:43:10.494Z,84.30
2023-03-17T12:46:14.314Z,83.60
2023-03-17T12:49:31.119Z,83.20
2023-03-17T12:52:29.266Z,85.00
2023-03-17T12:55:18.576Z,84.30
2023-03-17T12:58:08.064Z,84.00
2023-03-17T13:01:02.612Z,84.00
2023-03-17T13:04:02.564Z,83.60
2023-03-17T13:06:58.773Z,84.10
2023-03-17T13:09:49.805Z,84.30
2023-03-17T13:13:00.295Z,86.00
2023-03-17T13:15:57.361Z,82.60
2023-03-17T13:18:50.060Z,83.60
2023-03-17T13:21:38.675Z,81.20
2023-03-17T13:24:48.059Z,82.10
2023-03-17T13:27:49.937Z,81.60
2023-03-17T13:30:55.271Z,81.10
2023-03-17T13:33:44.661Z,80.00
2023-03-17T13:36:57.791Z,81.70
2023-03-17T13:40:14.736Z,80.30
2023-03-17T13:43:16.976Z,79.70
2023-03-17T13:46:27.733Z,79.40
2023-03-17T13:49:25.548Z,80.80
2023-03-17T13:52:15.540Z,82.10
2023-03-17T13:55:25.720Z,84.60
2023-03-17T13:58:34.704Z,85.40
2023-03-17T14:01:23.693Z,85.00
2023-03-17T14:04:20.818Z,84.10
2023-03-17T14:07:17.059Z,84.60
2023-03-17T14:10:08.083Z,85.00
2023-03-17T14:13:01.921Z,82.90
2023-03-17T14:15:56.423Z,84.30
2023-03-17T14:18:47.402Z,84.50
2023-03-17T14:21:36.011Z,85.80
2023-03-17T14:24:24.905Z,83.80
2023-03-17T14:27:15.888Z,84.20
2023-03-17T14:30:17.006Z,85.70
2023-03-17T14:33:06.490Z,88.10
2023-03-17T14:35:56.918Z,83.80
2023-03-17T14:38:49.728Z,85.10
2023-03-17T14:41:36.527Z,90.50
2023-03-17T14:44:24.270Z,90.00
2023-03-17T14:47:17.734Z,89.10
2023-03-17T14:50:05.377Z,91.60
2023-03-17T14:52:52.147Z,91.80
2023-03-17T14:55:43.595Z,91.80
2023-03-17T14:58:33.171Z,93.10
2023-03-17T15:01:33.510Z,93.60
2023-03-17T15:04:22.824Z,94.00
2023-03-17T15:07:30.483Z,94.40
2023-03-17T15:10:19.263Z,95.60
2023-03-17T15:13:07.168Z,97.20
2023-03-17T15:15:53.797Z,96.80
2023-03-17T15:18:41.564Z,97.70
2023-03-17T15:21:35.491Z,97.60
2023-03-17T15:24:37.100Z,98.50
2023-03-17T15:27:23.780Z,99.10
2023-03-17T15:30:11.600Z,99.80
2023-03-17T15:33:00.908Z,99.90
2023-03-17T15:35:49.288Z,99.90
2023-03-17T15:38:38.873Z,99.90
2023-03-17T15:41:25.685Z,99.90
2023-03-17T15:44:12.358Z,99.90
2023-03-17T15:46:58.999Z,99.90
2023-03-17T15:49:46.500Z,99.90
2023-03-17T15:52:34.660Z,99.90
2023-03-17T15:55:23.497Z,99.90
2023-03-17T15:58:10.024Z,99.90
2023-03-17T16:00:59.833Z,99.90
2023-03-17T16:03:47.960Z,99.90
2023-03-17T16:06:36.053Z,99.90
2023-03-17T16:09:24.127Z,99.90
2023-03-17T16:12:12.838Z,99.90
2023-03-17T16:15:00.744Z,99.90
2023-03-17T16:17:49.888Z,99.90
2023-03-17T16:20:39.621Z,99.90
2023-03-17T16:23:28.722Z,99.90
2023-03-17T16:26:17.194Z,99.90
2023-03-17T16:29:07.153Z,99.90
2023-03-17T16:31:53.638Z,99.90
2023-03-17T16:34:40.541Z,99.90
2023-03-17T16:37:26.909Z,99.90
2023-03-17T16:40:21.996Z,99.90
2023-03-17T16:43:25.660Z,99.90
2023-03-17T16:46:13.376Z,99.90
2023-03-17T16:49:00.260Z,99.90
2023-03-17T16:51:48.205Z,99.90
2023-03-17T16:54:36.142Z,99.90
2023-03-17T16:57:22.426Z,99.90
2023-03-17T17:00:16.928Z,99.90
2023-03-17T17:03:03.710Z,99.90
2023-03-17T17:05:50.649Z,99.90
2023-03-17T17:08:37.096Z,99.90
2023-03-17T17:11:23.422Z,99.90
2023-03-17T17:14:09.809Z,99.90
2023-03-17T17:16:57.514Z,99.90
2023-03-17T17:19:44.225Z,99.90
2023-03-17T17:22:30.767Z,99.90
2023-03-17T17:25:17.520Z,99.90
2023-03-17T17:28:04.570Z,99.90
2023-03-17T17:30:52.572Z,99.90
2023-03-17T17:33:41.029Z,99.90
2023-03-17T17:36:28.097Z,99.90
2023-03-17T17:39:15.305Z,99.90
2023-03-17T17:42:02.113Z,99.90
2023-03-17T17:44:48.871Z,99.90
2023-03-17T17:47:35.934Z,99.90
2023-03-17T17:50:26.946Z,99.90
2023-03-17T17:53:14.736Z,99.90
2023-03-17T17:56:01.098Z,99.90
2023-03-17T17:58:47.529Z,99.90
2023-03-17T18:01:34.152Z,99.90
2023-03-17T18:04:21.328Z,99.90
2023-03-17T18:07:09.576Z,99.90
2023-03-17T18:09:56.657Z,99.90
2023-03-17T18:12:43.750Z,99.90
2023-03-17T18:15:30.605Z,99.90
2023-03-17T18:18:17.610Z,99.90
2023-03-17T18:21:04.571Z,99.90
2023-03-17T18:23:55.076Z,99.90
2023-03-17T18:26:42.549Z,99.90
2023-03-17T18:29:28.918Z,99.90
2023-03-17T18:32:15.820Z,99.90
2023-03-17T18:35:07.268Z,99.90
2023-03-17T18:37:53.822Z,99.90
2023-03-17T18:40:42.157Z,99.90
2023-03-17T18:43:28.685Z,99.90
2023-03-17T18:46:16.274Z,99.90
2023-03-17T18:49:02.977Z,99.90
2023-03-17T18:51:49.353Z,99.90
2023-03-17T18:54:35.742Z,99.90
2023-03-17T18:57:23.477Z,99.90
2023-03-17T19:00:11.896Z,99.90
2023-03-17T19:02:58.756Z,99.90
2023-03-17T19:05:45.234Z,99.90
2023-03-17T19:08:31.707Z,99.90
2023-03-17T19:11:20.892Z,99.90
2023-03-17T19:14:09.844Z,99.90
2023-03-17T19:16:56.836Z,99.90
2023-03-17T19:19:43.763Z,99.90
2023-03-17T19:22:30.378Z,99.90
2023-03-17T19:25:17.675Z,99.90
2023-03-17T19:28:05.376Z,99.90
2023-03-17T19:30:53.507Z,99.90
2023-03-17T19:33:40.516Z,99.90
2023-03-17T19:36:27.189Z,99.90
2023-03-17T19:39:14.513Z,99.90
2023-03-17T19:42:01.443Z,99.90
2023-03-17T19:44:48.063Z,99.90
2023-03-17T19:47:36.101Z,99.90
2023-03-17T19:50:22.815Z,99.90
2023-03-17T19:53:10.095Z,99.90
2023-03-17T19:55:57.682Z,99.90
2023-03-17T19:58:44.592Z,99.90
2023-03-17T20:01:32.034Z,99.90
2023-03-17T20:04:21.964Z,99.90
2023-03-17T20:07:08.734Z,99.90
2023-03-17T20:09:55.775Z,99.90
2023-03-17T20:12:43.372Z,99.90
2023-03-17T20:15:30.231Z,99.90
2023-03-17T20:18:17.024Z,99.90
2023-03-17T20:21:07.717Z,99.90
2023-03-17T20:23:54.547Z,99.90
2023-03-17T20:26:43.223Z,99.90
2023-03-17T20:29:31.018Z,99.90
2023-03-17T20:32:18.079Z,99.90
2023-03-17T20:35:07.433Z,99.90
2023-03-17T20:37:57.037Z,99.90
2023-03-17T20:40:44.203Z,99.90
2023-03-17T20:43:34.113Z,99.90
2023-03-17T20:46:23.629Z,99.90
2023-03-17T20:49:10.435Z,99.90
2023-03-17T20:51:57.367Z,99.90
2023-03-17T20:54:45.550Z,99.90
2023-03-17T20:57:32.644Z,99.90
2023-03-17T21:00:22.021Z,99.90
2023-03-17T21:03:09.750Z,99.90
2023-03-17T21:05:57.138Z,99.90
2023-03-17T21:08:44.093Z,99.90
2023-03-17T21:11:32.023Z,99.90
2023-03-17T21:14:18.439Z,99.90
2023-03-17T21:17:05.594Z,99.90
2023-03-17T21:19:51.906Z,99.90
2023-03-17T21:22:39.869Z,99.90
2023-03-17T21:25:26.808Z,99.90
2023-03-17T21:28:15.180Z,99.90
2023-03-17T21:31:02.909Z,99.90
2023-03-17T21:33:50.563Z,99.90
2023-03-17T21:36:37.470Z,99.90
2023-03-17T21:39:24.337Z,99.90
2023-03-17T21:42:12.186Z,99.90
2023-03-17T21:45:00.367Z,99.90
2023-03-17T21:47:47.275Z,99.90
2023-03-17T21:50:34.433Z,99.90
2023-03-17T21:53:21.386Z,99.90
2023-03-17T21:56:09.154Z,99.90
2023-03-17T21:58:57.762Z,99.90
2023-03-17T22:01:45.828Z,99.90
2023-03-17T22:04:32.643Z,99.90
2023-03-17T22:07:19.462Z,99.90
2023-03-17T22:10:07.382Z,99.90
2023-03-17T22:12:54.358Z,99.90
2023-03-17T22:15:40.888Z,99.90
2023-03-17T22:18:28.718Z,99.90
2023-03-17T22:21:15.577Z,99.90
2023-03-17T22:24:02.217Z,99.90
2023-03-17T22:26:49.219Z,99.90
2023-03-17T22:29:36.719Z,99.90
2023-03-17T22:32:23.410Z,99.90
2023-03-17T22:35:11.998Z,99.90
2023-03-17T22:37:58.644Z,99.90
2023-03-17T22:40:45.165Z,99.90
2023-03-17T22:43:32.254Z,99.90
2023-03-17T22:46:19.684Z,99.90
2023-03-17T22:49:06.702Z,99.90
2023-03-17T22:51:54.569Z,99.90
2023-03-17T22:54:41.383Z,99.90
2023-03-17T22:57:27.784Z,99.90
2023-03-17T23:00:17.327Z,99.90
2023-03-17T23:03:04.148Z,99.90
2023-03-17T23:05:54.077Z,99.90
2023-03-17T23:08:43.958Z,99.90
2023-03-17T23:11:30.731Z,99.90
2023-03-17T23:14:17.593Z,99.90
2023-03-17T23:17:04.096Z,99.90
2023-03-17T23:19:50.921Z,99.90
2023-03-17T23:22:37.938Z,99.90
2023-03-17T23:25:26.597Z,99.90
2023-03-17T23:28:15.515Z,99.90
2023-03-17T23:31:02.801Z,99.90
2023-03-17T23:33:50.457Z,99.90
2023-03-17T23:36:40.058Z,99.90
2023-03-17T23:39:26.458Z,99.90
2023-03-17T23:42:14.357Z,99.90
2023-03-17T23:45:01.982Z,99.90
2023-03-17T23:47:48.761Z,99.90
2023-03-17T23:50:35.498Z,99.90
2023-03-17T23:53:23.445Z,99.90
2023-03-17T23:56:12.973Z,99.90
2023-03-17T23:59:01.587Z,99.90
